createdAt,value
2018-07-24T00:00:09.430Z,64.18
2018-07-24T00:03:11.484Z,64.83
2018-07-24T00:06:17.568Z,64.82
2018-07-24T00:09:20.867Z,64.77
2018-07-24T00:12:22.937Z,64.15
2018-07-24T00:15:25.027Z,63.67
2018-07-24T00:18:29.114Z,63.77
2018-07-24T00:21:31.248Z,64.12
2018-07-24T00:24:33.360Z,64.22
2018-07-24T00:27:35.299Z,64.22
2018-07-24T00:30:37.372Z,64.76
2018-07-24T00:33:39.476Z,64.26
2018-07-24T00:36:41.544Z,65.92
2018-07-24T00:39:43.582Z,66.01
2018-07-24T00:42:45.546Z,65.44
2018-07-24T00:45:47.623Z,65.85
2018-07-24T00:48:50.793Z,65.49
2018-07-24T00:51:52.743Z,64.83
2018-07-24T00:54:54.887Z,64.88
2018-07-24T00:57:56.918Z,65.51
2018-07-24T01:00:58.939Z,66.84
2018-07-24T01:04:01.157Z,66.87
2018-07-24T01:07:03.302Z,66.74
2018-07-24T01:10:06.306Z,67.10
2018-07-24T01:13:08.335Z,67.43
2018-07-24T01:16:10.399Z,67.32
2018-07-24T01:19:12.479Z,67.27
2018-07-24T01:22:14.635Z,67.04
2018-07-24T01:25:16.713Z,67.07
2018-07-24T01:28:18.726Z,67.03
2018-07-24T01:31:20.869Z,66.99
2018-07-24T01:34:22.946Z,67.07
2018-07-24T01:37:24.853Z,66.76
2018-07-24T01:40:26.966Z,66.22
2018-07-24T01:43:29.040Z,66.63
2018-07-24T01:46:31.121Z,66.63
2018-07-24T01:49:33.255Z,66.34
2018-07-24T01:52:35.319Z,66.40
2018-07-24T01:55:37.410Z,67.55
2018-07-24T01:58:39.355Z,67.40
2018-07-24T02:01:42.164Z,67.47
2018-07-24T02:04:44.319Z,67.38
2018-07-24T02:07:46.302Z,68.00
2018-07-24T02:10:48.391Z,67.47
2018-07-24T02:13:51.203Z,67.64
2018-07-24T02:16:53.505Z,68.25
2018-07-24T02:19:55.451Z,68.05
2018-07-24T02:22:57.657Z,67.92
2018-07-24T02:25:59.656Z,68.05
2018-07-24T02:29:01.731Z,68.32
2018-07-24T02:32:12.128Z,69.57
2018-07-24T02:35:14.451Z,68.23
2018-07-24T02:38:16.580Z,68.18
2018-07-24T02:41:18.715Z,68.24
2018-07-24T02:44:21.910Z,68.01
2018-07-24T02:47:24.169Z,68.35
2018-07-24T02:50:26.280Z,67.42
2018-07-24T02:53:28.491Z,67.82
2018-07-24T02:56:30.642Z,67.86
2018-07-24T02:59:32.659Z,67.31
2018-07-24T03:02:34.824Z,67.72
2018-07-24T03:05:37.804Z,68.12
2018-07-24T03:08:40.130Z,67.54
2018-07-24T03:11:42.479Z,67.49
2018-07-24T03:14:45.889Z,67.56
2018-07-24T03:17:48.056Z,67.66
2018-07-24T03:20:50.147Z,67.90
2018-07-24T03:23:52.942Z,67.84
2018-07-24T03:26:55.075Z,67.61
2018-07-24T03:29:57.129Z,67.01
2018-07-24T03:32:59.212Z,67.30
2018-07-24T03:36:01.339Z,68.02
2018-07-24T03:39:06.695Z,68.92
2018-07-24T03:42:10.330Z,68.31
2018-07-24T03:45:13.489Z,68.67
2018-07-24T03:48:15.678Z,68.60
2018-07-24T03:51:17.766Z,68.81
2018-07-24T03:54:19.883Z,68.65
2018-07-24T03:57:22.900Z,68.86
2018-07-24T04:00:25.027Z,68.69
2018-07-24T04:03:27.173Z,69.49
2018-07-24T04:06:29.259Z,69.57
2018-07-24T04:09:31.396Z,69.55
2018-07-24T04:12:33.536Z,69.32
2018-07-24T04:15:35.681Z,69.16
2018-07-24T04:18:44.018Z,69.42
2018-07-24T04:21:46.200Z,69.31
2018-07-24T04:24:48.371Z,69.13
2018-07-24T04:27:50.583Z,69.36
2018-07-24T04:30:59.109Z,70.23
2018-07-24T04:34:01.173Z,71.36
2018-07-24T04:37:03.258Z,72.35
2018-07-24T04:40:10.256Z,72.68
2018-07-24T04:43:12.511Z,72.82
2018-07-24T04:46:14.719Z,72.79
2018-07-24T04:49:16.904Z,72.36
2018-07-24T04:52:19.021Z,72.05
2018-07-24T04:55:22.139Z,71.95
2018-07-24T04:58:24.143Z,71.75
2018-07-24T05:01:27.354Z,71.82
2018-07-24T05:04:29.552Z,71.67
2018-07-24T05:07:31.619Z,71.40
2018-07-24T05:10:33.819Z,72.15
2018-07-24T05:13:35.871Z,72.82
2018-07-24T05:16:38.172Z,72.71
2018-07-24T05:19:40.383Z,73.29
2018-07-24T05:22:42.953Z,72.23
2018-07-24T05:25:44.982Z,71.95
2018-07-24T05:28:47.155Z,72.14
2018-07-24T05:31:49.251Z,70.97
2018-07-24T05:34:51.754Z,70.90
2018-07-24T05:37:53.851Z,70.31
2018-07-24T05:40:55.965Z,70.30
2018-07-24T05:43:58.083Z,69.65
2018-07-24T05:47:00.055Z,70.27
2018-07-24T05:50:02.190Z,68.83
2018-07-24T05:53:05.486Z,67.93
2018-07-24T05:56:08.623Z,67.77
2018-07-24T05:59:10.683Z,66.74
2018-07-24T06:02:12.922Z,65.79
2018-07-24T06:05:14.879Z,65.47
2018-07-24T06:08:16.980Z,64.59
2018-07-24T06:11:19.071Z,64.19
2018-07-24T06:14:21.204Z,64.41
2018-07-24T06:17:23.643Z,64.60
2018-07-24T06:20:25.582Z,64.18
2018-07-24T06:23:27.644Z,63.39
2018-07-24T06:26:29.701Z,62.75
2018-07-24T06:29:31.696Z,62.41
2018-07-24T06:32:33.789Z,61.96
2018-07-24T06:35:35.886Z,62.02
2018-07-24T06:38:39.023Z,62.11
2018-07-24T06:41:41.582Z,61.99
2018-07-24T06:44:43.652Z,61.80
2018-07-24T06:47:45.746Z,61.78
2018-07-24T06:50:47.663Z,61.80
2018-07-24T06:53:49.755Z,62.13
2018-07-24T06:56:51.806Z,61.42
2018-07-24T06:59:54.923Z,61.08
2018-07-24T07:02:57.038Z,61.87
2018-07-24T07:05:59.143Z,61.87
2018-07-24T07:09:04.247Z,61.71
2018-07-24T07:12:06.373Z,60.93
2018-07-24T07:15:08.759Z,60.83
2018-07-24T07:18:10.796Z,61.14
2018-07-24T07:21:13.906Z,60.88
2018-07-24T07:24:15.927Z,59.51
2018-07-24T07:27:17.935Z,59.85
2018-07-24T07:30:20.067Z,59.08
2018-07-24T07:33:22.186Z,59.55
2018-07-24T07:36:24.258Z,58.62
2018-07-24T07:39:26.434Z,57.44
2018-07-24T07:42:28.509Z,56.53
2018-07-24T07:45:30.558Z,54.88
2018-07-24T07:48:32.760Z,54.73
2018-07-24T07:51:36.950Z,54.25
2018-07-24T07:54:38.893Z,54.46
2018-07-24T07:57:41.018Z,53.33
2018-07-24T08:00:43.126Z,53.67
2018-07-24T08:03:45.213Z,52.49
2018-07-24T08:06:47.326Z,52.86
2018-07-24T08:09:50.384Z,52.13
2018-07-24T08:12:52.449Z,51.19
2018-07-24T08:15:54.638Z,51.31
2018-07-24T08:18:56.775Z,51.86
2018-07-24T08:21:58.891Z,51.39
2018-07-24T08:25:00.914Z,50.72
2018-07-24T08:28:03.030Z,50.90
2018-07-24T08:31:05.907Z,50.85
2018-07-24T08:34:08.077Z,50.24
2018-07-24T08:37:10.156Z,49.82
2018-07-24T08:40:12.230Z,49.52
2018-07-24T08:43:14.372Z,48.82
2018-07-24T08:46:16.493Z,47.43
2018-07-24T08:49:18.620Z,47.36
2018-07-24T08:52:20.584Z,48.22
2018-07-24T08:55:22.974Z,47.57
2018-07-24T08:58:24.586Z,46.26
2018-07-24T09:01:26.739Z,46.78
2018-07-24T09:04:28.772Z,46.21
2018-07-24T09:07:30.820Z,44.99
2018-07-24T09:10:32.986Z,44.70
2018-07-24T09:13:35.044Z,45.73
2018-07-24T09:16:38.742Z,45.70
2018-07-24T09:19:40.835Z,43.61
2018-07-24T09:22:42.891Z,44.88
2018-07-24T09:25:45.015Z,44.78
2018-07-24T09:28:47.032Z,45.35
2018-07-24T09:31:49.187Z,44.45
2018-07-24T09:34:51.135Z,43.47
2018-07-24T09:37:53.149Z,43.57
2018-07-24T09:40:55.230Z,42.86
2018-07-24T09:43:57.259Z,41.33
2018-07-24T09:46:59.527Z,40.46
2018-07-24T09:50:01.645Z,39.96
2018-07-24T09:53:03.687Z,40.23
2018-07-24T09:56:06.686Z,39.41
2018-07-24T09:59:08.783Z,38.46
2018-07-24T10:02:11.342Z,40.00
2018-07-24T10:05:13.496Z,40.44
2018-07-24T10:08:15.619Z,38.93
2018-07-24T10:11:17.749Z,38.36
2018-07-24T10:14:19.667Z,39.24
2018-07-24T10:17:21.781Z,37.54
2018-07-24T10:20:23.861Z,37.77
2018-07-24T10:23:25.931Z,37.47
2018-07-24T10:26:28.108Z,35.46
2018-07-24T10:29:30.283Z,34.96
2018-07-24T10:32:32.366Z,36.00
2018-07-24T10:35:34.405Z,36.34
2018-07-24T10:38:37.284Z,36.54
2018-07-24T10:41:39.351Z,35.58
2018-07-24T10:44:41.331Z,36.00
2018-07-24T10:47:43.425Z,35.67
2018-07-24T10:50:45.433Z,34.84
2018-07-24T10:53:47.621Z,36.45
2018-07-24T10:56:49.724Z,35.91
2018-07-24T10:59:51.814Z,36.04
2018-07-24T11:02:53.953Z,34.30
2018-07-24T11:05:56.118Z,35.27
2018-07-24T11:08:58.171Z,34.19
2018-07-24T11:12:00.164Z,33.98
2018-07-24T11:15:02.405Z,32.90
2018-07-24T11:18:04.571Z,32.21
2018-07-24T11:21:06.768Z,32.30
2018-07-24T11:24:08.858Z,32.44
2018-07-24T11:27:10.884Z,33.02
2018-07-24T11:30:12.991Z,33.42
2018-07-24T11:33:15.135Z,32.64
2018-07-24T11:36:17.172Z,31.63
2018-07-24T11:39:20.251Z,31.33
2018-07-24T11:42:22.608Z,31.74
2018-07-24T11:45:24.631Z,31.35
2018-07-24T11:48:26.770Z,31.99
2018-07-24T11:51:28.824Z,30.92
2018-07-24T11:54:30.979Z,30.82
2018-07-24T11:57:33.024Z,30.72
2018-07-24T12:00:35.185Z,30.44
2018-07-24T12:03:37.313Z,31.72
2018-07-24T12:06:40.399Z,29.56
2018-07-24T12:09:42.459Z,30.80
2018-07-24T12:12:44.378Z,29.98
2018-07-24T12:15:46.495Z,29.26
2018-07-24T12:18:48.553Z,29.32
2018-07-24T12:21:50.647Z,30.20
2018-07-24T12:24:52.722Z,29.75
2018-07-24T12:27:54.769Z,29.40
2018-07-24T12:30:56.813Z,30.08
2018-07-24T12:33:58.920Z,29.04
2018-07-24T12:37:01.013Z,29.21
2018-07-24T12:40:03.262Z,29.09
2018-07-24T12:43:06.480Z,28.82
2018-07-24T12:46:08.541Z,27.51
2018-07-24T12:49:10.719Z,26.51
2018-07-24T12:52:12.678Z,26.44
2018-07-24T12:55:14.801Z,26.60
2018-07-24T12:58:16.918Z,27.62
2018-07-24T13:01:19.015Z,26.88
2018-07-24T13:04:21.062Z,27.27
2018-07-24T13:07:23.135Z,27.98
2018-07-24T13:10:25.544Z,27.68
2018-07-24T13:13:27.643Z,28.15
2018-07-24T13:16:30.839Z,27.85
2018-07-24T13:19:33.033Z,27.81
2018-07-24T13:22:35.922Z,27.55
2018-07-24T13:25:38.025Z,27.59
2018-07-24T13:28:40.042Z,27.45
2018-07-24T13:31:42.252Z,27.95
2018-07-24T13:34:46.572Z,27.69
2018-07-24T13:37:48.631Z,27.37
2018-07-24T13:40:50.709Z,27.16
2018-07-24T13:43:52.949Z,26.77
2018-07-24T13:46:55.057Z,27.35
2018-07-24T13:49:57.089Z,27.59
2018-07-24T13:52:59.131Z,26.29
2018-07-24T13:56:01.260Z,26.33
2018-07-24T13:59:03.440Z,26.92
2018-07-24T14:02:07.127Z,26.75
2018-07-24T14:05:09.192Z,25.80
2018-07-24T14:08:11.264Z,25.44
2018-07-24T14:11:13.447Z,25.23
2018-07-24T14:14:15.643Z,25.40
2018-07-24T14:17:17.661Z,25.30
2018-07-24T14:20:19.883Z,25.00
2018-07-24T14:23:21.850Z,25.42
2018-07-24T14:26:23.881Z,25.15
2018-07-24T14:29:26.046Z,25.43
2018-07-24T14:32:28.129Z,24.75
2018-07-24T14:35:30.243Z,25.12
2018-07-24T14:38:32.366Z,25.30
2018-07-24T14:41:34.439Z,23.95
2018-07-24T14:44:36.814Z,23.93
2018-07-24T14:47:52.622Z,24.84
2018-07-24T14:50:55.522Z,24.20
2018-07-24T14:53:57.528Z,24.24
2018-07-24T14:56:59.639Z,24.70
2018-07-24T15:00:01.753Z,25.27
2018-07-24T15:03:03.694Z,23.29
2018-07-24T15:06:06.732Z,23.31
2018-07-24T15:09:10.580Z,22.20
2018-07-24T15:12:12.645Z,23.11
2018-07-24T15:15:14.813Z,22.76
2018-07-24T15:18:16.938Z,22.57
2018-07-24T15:21:19.016Z,23.63
2018-07-24T15:24:21.237Z,23.40
2018-07-24T15:27:23.326Z,22.57
2018-07-24T15:30:25.420Z,23.37
2018-07-24T15:33:27.518Z,24.44
2018-07-24T15:36:29.661Z,24.70
2018-07-24T15:39:31.680Z,24.05
2018-07-24T15:42:33.639Z,22.91
2018-07-24T15:45:35.995Z,24.13
2018-07-24T15:48:38.227Z,24.48
2018-07-24T15:51:40.369Z,23.67
2018-07-24T15:54:42.692Z,24.08
2018-07-24T15:57:45.018Z,24.17
2018-07-24T16:00:47.025Z,24.17
2018-07-24T16:03:51.024Z,24.35
2018-07-24T16:06:53.172Z,23.63
2018-07-24T16:09:55.231Z,23.83
2018-07-24T16:12:57.238Z,24.16
2018-07-24T16:15:59.399Z,23.46
2018-07-24T16:19:01.703Z,23.69
2018-07-24T16:22:03.867Z,24.12
2018-07-24T16:25:06.038Z,24.57
2018-07-24T16:28:08.096Z,23.99
2018-07-24T16:31:10.158Z,24.78
2018-07-24T16:34:12.251Z,24.90
2018-07-24T16:37:14.408Z,24.45
2018-07-24T16:40:16.398Z,23.87
2018-07-24T16:43:18.503Z,24.13
2018-07-24T16:46:20.527Z,24.47
2018-07-24T16:49:22.658Z,25.18
2018-07-24T16:52:24.734Z,24.49
2018-07-24T16:55:26.807Z,24.91
2018-07-24T16:58:29.019Z,24.61
2018-07-24T17:01:31.076Z,25.37
2018-07-24T17:04:33.211Z,25.59
2018-07-24T17:07:37.354Z,25.24
2018-07-24T17:10:39.334Z,25.50
2018-07-24T17:13:41.465Z,25.67
2018-07-24T17:16:43.487Z,25.84
2018-07-24T17:19:45.610Z,25.36
2018-07-24T17:22:47.751Z,25.65
2018-07-24T17:25:49.797Z,25.87
2018-07-24T17:28:51.860Z,26.31
2018-07-24T17:31:54.058Z,25.64
2018-07-24T17:34:56.130Z,25.39
2018-07-24T17:37:58.083Z,25.75
2018-07-24T17:41:00.292Z,26.32
2018-07-24T17:44:07.236Z,26.68
2018-07-24T17:47:09.287Z,27.07
2018-07-24T17:50:11.459Z,26.48
2018-07-24T17:53:13.771Z,26.73
2018-07-24T17:56:15.950Z,26.86
2018-07-24T17:59:18.052Z,27.32
2018-07-24T18:02:20.214Z,27.38
2018-07-24T18:05:22.155Z,27.50
2018-07-24T18:08:24.275Z,27.73
2018-07-24T18:11:26.462Z,27.90
2018-07-24T18:14:28.618Z,27.41
2018-07-24T18:17:31.719Z,27.30
2018-07-24T18:20:33.790Z,27.56
2018-07-24T18:23:37.550Z,27.75
2018-07-24T18:26:39.691Z,27.68
2018-07-24T18:29:41.743Z,27.86
2018-07-24T18:32:43.903Z,28.40
2018-07-24T18:35:45.991Z,28.99
2018-07-24T18:38:48.084Z,29.51
2018-07-24T18:41:50.096Z,29.33
2018-07-24T18:44:52.184Z,29.96
2018-07-24T18:47:54.317Z,30.67
2018-07-24T18:50:56.391Z,31.61
2018-07-24T18:53:58.377Z,32.86
2018-07-24T18:57:01.519Z,33.77
2018-07-24T19:00:04.416Z,34.09
2018-07-24T19:03:06.612Z,34.67
2018-07-24T19:06:08.787Z,35.85
2018-07-24T19:09:11.801Z,35.44
2018-07-24T19:12:13.971Z,36.61
2018-07-24T19:15:17.067Z,36.94
2018-07-24T19:18:19.243Z,38.89
2018-07-24T19:21:21.275Z,38.86
2018-07-24T19:24:23.236Z,38.49
2018-07-24T19:27:25.344Z,39.05
2018-07-24T19:30:27.537Z,39.33
2018-07-24T19:33:30.774Z,38.96
2018-07-24T19:36:32.953Z,40.07
2018-07-24T19:39:35.111Z,39.96
2018-07-24T19:42:37.195Z,40.86
2018-07-24T19:45:40.179Z,40.98
2018-07-24T19:48:42.482Z,41.08
2018-07-24T19:51:44.604Z,42.64
2018-07-24T19:54:46.687Z,42.58
2018-07-24T19:57:48.806Z,42.65
2018-07-24T20:00:50.975Z,42.16
2018-07-24T20:03:54.099Z,43.07
2018-07-24T20:06:57.225Z,43.18
2018-07-24T20:09:59.339Z,43.89
2018-07-24T20:13:01.586Z,44.21
2018-07-24T20:16:03.732Z,45.17
2018-07-24T20:19:05.956Z,45.95
2018-07-24T20:22:08.195Z,46.37
2018-07-24T20:25:11.343Z,47.03
2018-07-24T20:28:13.330Z,47.09
2018-07-24T20:31:15.606Z,46.98
2018-07-24T20:34:17.930Z,47.22
2018-07-24T20:37:19.964Z,46.66
2018-07-24T20:40:22.112Z,47.15
2018-07-24T20:43:24.197Z,46.63
2018-07-24T20:46:26.337Z,46.36
2018-07-24T20:49:28.311Z,46.89
2018-07-24T20:52:30.290Z,46.87
2018-07-24T20:55:32.400Z,47.92
2018-07-24T20:58:34.483Z,46.90
2018-07-24T21:01:36.648Z,46.68
2018-07-24T21:04:38.700Z,46.76
2018-07-24T21:07:41.517Z,46.17
2018-07-24T21:10:43.539Z,45.74
2018-07-24T21:13:45.659Z,45.48
2018-07-24T21:16:47.744Z,45.38
2018-07-24T21:19:49.888Z,45.00
2018-07-24T21:22:51.943Z,45.36
2018-07-24T21:25:54.063Z,45.56
2018-07-24T21:28:56.188Z,45.61
2018-07-24T21:32:00.171Z,46.01
2018-07-24T21:35:02.289Z,46.20
2018-07-24T21:38:04.377Z,46.03
2018-07-24T21:41:06.696Z,46.57
2018-07-24T21:44:08.871Z,46.79
2018-07-24T21:47:11.020Z,46.73
2018-07-24T21:50:13.179Z,46.51
2018-07-24T21:53:15.232Z,47.06
2018-07-24T21:56:17.368Z,48.10
2018-07-24T21:59:19.499Z,48.23
2018-07-24T22:02:21.624Z,48.67
2018-07-24T22:05:23.638Z,48.67
2018-07-24T22:08:25.621Z,48.78
2018-07-24T22:11:32.635Z,49.50
2018-07-24T22:14:35.722Z,50.01
2018-07-24T22:17:37.769Z,49.63
2018-07-24T22:20:39.831Z,50.52
2018-07-24T22:23:42.847Z,50.82
2018-07-24T22:26:45.020Z,51.09
2018-07-24T22:29:47.112Z,51.28
2018-07-24T22:32:49.144Z,50.66
2018-07-24T22:35:51.229Z,50.44
2018-07-24T22:38:53.190Z,50.45
2018-07-24T22:41:55.232Z,50.21
2018-07-24T22:44:57.231Z,50.73
2018-07-24T22:48:00.289Z,50.56
2018-07-24T22:51:02.435Z,51.12
2018-07-24T22:54:04.460Z,50.81
2018-07-24T22:57:06.551Z,50.86
2018-07-24T23:00:08.523Z,51.11
2018-07-24T23:03:11.056Z,50.87
2018-07-24T23:06:13.104Z,51.35
2018-07-24T23:09:15.062Z,50.82
2018-07-24T23:12:17.089Z,50.96
2018-07-24T23:15:19.156Z,51.79
2018-07-24T23:18:21.294Z,52.17
2018-07-24T23:21:23.383Z,52.36
2018-07-24T23:24:26.459Z,52.38
2018-07-24T23:27:28.519Z,52.43
2018-07-24T23:30:36.427Z,51.97
2018-07-24T23:33:38.519Z,52.93
2018-07-24T23:36:41.486Z,52.91
2018-07-24T23:39:43.576Z,53.96
2018-07-24T23:42:45.647Z,54.04
2018-07-24T23:45:47.700Z,54.16
2018-07-24T23:48:49.800Z,53.91
2018-07-24T23:51:51.814Z,53.52
2018-07-24T23:54:53.913Z,53.08
2018-07-24T23:57:56.151Z,53.87
